createdAt,value
2022-10-08T00:01:38.276Z,11.85
2022-10-08T00:05:39.856Z,12.13
2022-10-08T00:09:41.434Z,10.77
2022-10-08T00:13:45.243Z,11.25
2022-10-08T00:17:46.834Z,10.88
2022-10-08T00:21:51.255Z,12.80
2022-10-08T00:25:52.668Z,10.55
2022-10-08T00:29:54.231Z,11.55
2022-10-08T00:33:57.759Z,11.48
2022-10-08T00:37:59.188Z,10.90
2022-10-08T00:42:02.278Z,11.77
2022-10-08T00:46:05.243Z,11.60
2022-10-08T00:50:18.402Z,11.57
2022-10-08T00:54:22.044Z,10.63
2022-10-08T00:58:25.551Z,11.80
2022-10-08T01:02:27.018Z,11.27
2022-10-08T01:06:30.675Z,11.75
2022-10-08T01:11:23.103Z,11.18
2022-10-08T01:15:36.719Z,10.07
2022-10-08T01:19:47.298Z,11.02
2022-10-08T01:24:52.475Z,10.55
2022-10-08T01:29:02.339Z,10.35
2022-10-08T01:33:12.547Z,10.85
2022-10-08T01:37:24.736Z,11.48
2022-10-08T01:41:27.186Z,11.65
2022-10-08T01:45:32.503Z,10.73
2022-10-08T01:49:42.189Z,10.98
2022-10-08T01:53:46.173Z,10.90
2022-10-08T01:57:47.999Z,12.02
2022-10-08T02:02:29.508Z,12.23
2022-10-08T02:06:34.681Z,13.05
2022-10-08T02:10:36.931Z,10.77
2022-10-08T02:14:41.101Z,12.18
2022-10-08T02:18:49.363Z,10.32
2022-10-08T02:23:04.703Z,12.00
2022-10-08T02:27:08.394Z,10.48
2022-10-08T02:31:15.922Z,11.35
2022-10-08T02:35:25.493Z,8.95
2022-10-08T02:39:29.248Z,10.73
2022-10-08T02:43:34.642Z,10.13
2022-10-08T02:47:38.602Z,9.40
2022-10-08T02:51:41.817Z,8.48
2022-10-08T02:55:54.892Z,8.13
2022-10-08T02:59:56.446Z,7.85
2022-10-08T03:04:05.269Z,8.35
2022-10-08T03:08:07.983Z,9.18
2022-10-08T03:12:09.709Z,9.13
2022-10-08T03:16:13.589Z,8.10
2022-10-08T03:20:15.009Z,9.85
2022-10-08T03:24:17.019Z,8.52
2022-10-08T03:28:18.441Z,8.20
2022-10-08T03:32:19.859Z,9.00
2022-10-08T03:36:23.254Z,7.93
2022-10-08T03:40:24.810Z,7.63
2022-10-08T03:44:26.236Z,8.45
2022-10-08T03:48:28.630Z,8.35
2022-10-08T03:52:31.006Z,8.75
2022-10-08T03:56:32.658Z,8.88
2022-10-08T04:00:34.545Z,7.68
2022-10-08T04:04:36.104Z,8.90
2022-10-08T04:08:38.002Z,7.10
2022-10-08T04:12:39.439Z,7.85
2022-10-08T04:16:40.831Z,7.43
2022-10-08T04:20:43.431Z,8.07
2022-10-08T04:24:45.002Z,10.05
2022-10-08T04:28:48.046Z,9.60
2022-10-08T04:32:50.054Z,8.20
2022-10-08T04:36:51.557Z,8.60
2022-10-08T04:41:17.731Z,8.40
2022-10-08T04:45:19.545Z,8.40
2022-10-08T04:49:20.987Z,9.82
2022-10-08T04:53:22.729Z,9.82
2022-10-08T04:57:24.123Z,10.48
2022-10-08T05:01:27.239Z,8.77
2022-10-08T05:05:29.029Z,10.60
2022-10-08T05:09:30.510Z,10.02
2022-10-08T05:13:32.652Z,9.70
2022-10-08T05:17:34.534Z,9.18
2022-10-08T05:21:36.544Z,9.73
2022-10-08T05:25:38.056Z,8.75
2022-10-08T05:29:39.555Z,8.30
2022-10-08T05:33:40.999Z,8.68
2022-10-08T05:37:42.513Z,8.60
2022-10-08T05:41:44.302Z,8.38
2022-10-08T05:45:52.245Z,9.40
2022-10-08T05:49:53.822Z,9.75
2022-10-08T05:53:56.878Z,8.05
2022-10-08T05:57:58.306Z,9.23
2022-10-08T06:01:59.735Z,8.57
2022-10-08T06:06:06.638Z,7.70
2022-10-08T06:10:08.781Z,7.77
2022-10-08T06:14:12.161Z,6.85
2022-10-08T06:18:13.621Z,5.28
2022-10-08T06:22:15.094Z,6.93
2022-10-08T06:26:18.181Z,5.65
2022-10-08T06:30:19.648Z,5.38
2022-10-08T06:34:21.688Z,4.82
2022-10-08T06:38:23.349Z,5.35
2022-10-08T06:42:24.923Z,5.50
2022-10-08T06:46:26.680Z,5.80
2022-10-08T06:50:28.114Z,5.65
2022-10-08T06:54:29.660Z,4.82
2022-10-08T06:58:31.671Z,4.70
2022-10-08T07:02:33.389Z,4.32
2022-10-08T07:06:35.647Z,4.65
2022-10-08T07:10:37.046Z,4.85
2022-10-08T07:14:38.665Z,4.63
2022-10-08T07:18:41.069Z,4.43
2022-10-08T07:22:42.653Z,3.83
2022-10-08T07:26:44.681Z,3.30
2022-10-08T07:30:46.636Z,4.03
2022-10-08T07:34:48.119Z,3.78
2022-10-08T07:38:57.728Z,3.00
2022-10-08T07:42:59.235Z,3.65
2022-10-08T07:47:01.107Z,4.80
2022-10-08T07:51:19.497Z,4.93
2022-10-08T07:55:21.911Z,3.83
2022-10-08T07:59:23.470Z,2.90
2022-10-08T08:03:25.395Z,3.58
2022-10-08T08:07:27.069Z,2.33
2022-10-08T08:11:30.097Z,2.45
2022-10-08T08:15:31.569Z,3.13
2022-10-08T08:19:33.143Z,2.80
2022-10-08T08:23:37.762Z,2.42
2022-10-08T08:27:39.221Z,2.88
2022-10-08T08:31:43.631Z,2.65
2022-10-08T08:35:55.719Z,2.63
2022-10-08T08:39:57.368Z,2.28
2022-10-08T08:44:00.186Z,3.83
2022-10-08T08:48:18.632Z,2.45
2022-10-08T08:52:26.656Z,2.35
2022-10-08T08:56:29.027Z,2.33
2022-10-08T09:00:36.598Z,2.50
2022-10-08T09:04:44.906Z,3.72
2022-10-08T09:09:15.567Z,2.25
2022-10-08T09:13:21.638Z,2.53
2022-10-08T09:17:31.298Z,2.35
2022-10-08T09:21:33.946Z,3.13
2022-10-08T09:25:37.377Z,2.90
2022-10-08T09:29:38.926Z,3.45
2022-10-08T09:33:40.879Z,2.40
2022-10-08T09:37:45.970Z,3.35
2022-10-08T09:42:07.364Z,3.30
2022-10-08T09:46:28.568Z,2.85
2022-10-08T09:50:30.309Z,2.58
2022-10-08T09:54:36.099Z,3.33
2022-10-08T09:58:53.289Z,3.28
2022-10-08T10:02:55.900Z,2.70
2022-10-08T10:06:57.564Z,2.50
2022-10-08T10:10:59.536Z,2.92
2022-10-08T10:15:11.355Z,2.90
2022-10-08T10:19:19.079Z,2.58
2022-10-08T10:23:35.340Z,2.13
2022-10-08T10:27:45.133Z,2.25
2022-10-08T10:31:53.864Z,2.83
2022-10-08T10:36:01.347Z,2.22
2022-10-08T10:40:22.367Z,3.10
2022-10-08T10:44:26.991Z,3.35
2022-10-08T10:48:29.199Z,2.53
2022-10-08T10:53:07.513Z,2.33
2022-10-08T10:57:28.702Z,1.90
2022-10-08T11:01:34.139Z,2.20
2022-10-08T11:05:36.764Z,2.45
2022-10-08T11:09:47.492Z,2.72
2022-10-08T11:14:16.389Z,2.38
2022-10-08T11:18:19.869Z,1.50
2022-10-08T11:22:40.651Z,2.75
2022-10-08T11:26:50.539Z,2.63
2022-10-08T11:31:13.812Z,2.67
2022-10-08T11:35:31.495Z,2.08
2022-10-08T11:43:40.743Z,2.30
2022-10-08T11:47:42.148Z,1.92
2022-10-08T11:51:45.383Z,2.30
2022-10-08T11:55:55.336Z,1.80
2022-10-08T12:00:08.638Z,1.60
2022-10-08T12:04:32.279Z,2.03
2022-10-08T12:08:59.442Z,2.15
2022-10-08T12:13:02.736Z,2.50
2022-10-08T12:17:04.411Z,3.20
2022-10-08T12:21:17.914Z,1.95
2022-10-08T12:25:32.059Z,2.17
2022-10-08T12:29:56.797Z,1.60
2022-10-08T12:34:10.422Z,2.88
2022-10-08T12:38:24.310Z,1.33
2022-10-08T12:42:28.413Z,2.83
2022-10-08T12:46:48.114Z,1.67
2022-10-08T12:51:09.747Z,1.70
2022-10-08T12:55:16.914Z,1.42
2022-10-08T12:59:20.320Z,2.22
2022-10-08T13:03:21.918Z,1.70
2022-10-08T13:07:28.700Z,1.50
2022-10-08T13:11:30.814Z,2.20
2022-10-08T13:15:35.049Z,2.00
2022-10-08T13:19:39.098Z,1.73
2022-10-08T13:23:40.843Z,2.22
2022-10-08T13:27:42.256Z,1.75
2022-10-08T13:31:44.149Z,1.60
2022-10-08T13:35:52.031Z,1.60
2022-10-08T13:39:56.215Z,1.52
2022-10-08T13:43:58.297Z,1.20
2022-10-08T13:47:59.757Z,1.33
2022-10-08T13:52:01.975Z,1.33
2022-10-08T13:56:04.140Z,1.25
2022-10-08T14:00:06.252Z,1.15
2022-10-08T14:04:07.695Z,1.40
2022-10-08T14:08:23.971Z,0.80
2022-10-08T14:12:27.428Z,1.60
2022-10-08T14:16:28.937Z,2.60
2022-10-08T14:20:30.472Z,1.45
2022-10-08T14:24:32.098Z,1.45
2022-10-08T14:28:33.521Z,1.50
2022-10-08T14:32:34.956Z,1.75
2022-10-08T14:36:38.430Z,1.15
2022-10-08T14:40:39.951Z,3.25
2022-10-08T14:44:42.157Z,1.60
2022-10-08T14:48:43.591Z,1.45
2022-10-08T14:52:45.062Z,1.20
2022-10-08T14:56:48.272Z,1.70
2022-10-08T15:00:57.005Z,0.80
2022-10-08T15:04:58.489Z,1.48
2022-10-08T15:09:00.423Z,0.95
2022-10-08T15:13:02.051Z,0.93
2022-10-08T15:17:06.442Z,0.70
2022-10-08T15:21:08.417Z,0.90
2022-10-08T15:25:09.939Z,0.75
2022-10-08T15:29:11.789Z,0.70
2022-10-08T15:33:13.232Z,0.95
2022-10-08T15:37:14.743Z,0.90
2022-10-08T15:41:17.647Z,1.75
2022-10-08T15:45:19.511Z,1.38
2022-10-08T15:49:21.455Z,1.75
2022-10-08T15:53:23.324Z,0.90
2022-10-08T15:57:24.887Z,1.25
2022-10-08T16:01:27.225Z,1.25
2022-10-08T16:05:31.207Z,0.80
2022-10-08T16:09:32.806Z,1.65
2022-10-08T16:13:34.233Z,1.20
2022-10-08T16:17:35.720Z,2.13
2022-10-08T16:21:37.471Z,1.27
2022-10-08T16:25:41.277Z,1.60
2022-10-08T16:29:48.305Z,1.40
2022-10-08T16:33:57.973Z,1.20
2022-10-08T16:38:03.373Z,1.33
2022-10-08T16:42:04.931Z,1.20
2022-10-08T16:46:13.621Z,1.30
2022-10-08T16:50:15.185Z,0.90
2022-10-08T16:54:17.807Z,1.58
2022-10-08T16:58:19.370Z,1.30
2022-10-08T17:02:25.051Z,1.17
2022-10-08T17:06:29.048Z,1.13
2022-10-08T17:10:30.464Z,1.42
2022-10-08T17:14:33.363Z,1.60
2022-10-08T17:18:35.520Z,1.00
2022-10-08T17:22:36.976Z,1.67
2022-10-08T17:26:39.372Z,1.20
2022-10-08T17:30:40.804Z,1.75
2022-10-08T17:34:42.435Z,1.10
2022-10-08T17:38:48.729Z,1.20
2022-10-08T17:42:50.553Z,2.15
2022-10-08T17:46:52.298Z,3.10
2022-10-08T17:50:54.658Z,3.20
2022-10-08T17:54:56.115Z,3.22
2022-10-08T17:58:59.857Z,3.85
2022-10-08T18:03:03.043Z,3.20
2022-10-08T18:07:04.679Z,3.15
2022-10-08T18:11:08.100Z,4.05
2022-10-08T18:15:09.738Z,2.90
2022-10-08T18:19:12.042Z,2.85
2022-10-08T18:23:13.577Z,3.35
2022-10-08T18:27:15.162Z,3.28
2022-10-08T18:31:20.444Z,4.35
2022-10-08T18:35:22.102Z,3.97
2022-10-08T18:39:28.232Z,3.20
2022-10-08T18:43:30.121Z,3.03
2022-10-08T18:47:31.587Z,5.82
2022-10-08T18:51:34.185Z,6.72
2022-10-08T18:55:35.774Z,8.05
2022-10-08T18:59:37.476Z,5.78
2022-10-08T19:03:39.162Z,5.43
2022-10-08T19:07:40.673Z,5.57
2022-10-08T19:11:45.461Z,5.38
2022-10-08T19:15:47.299Z,5.43
2022-10-08T19:19:48.828Z,5.55
2022-10-08T19:23:50.792Z,5.45
2022-10-08T19:27:53.015Z,3.55
2022-10-08T19:31:55.330Z,3.83
2022-10-08T19:36:00.912Z,3.60
2022-10-08T19:40:02.747Z,4.28
2022-10-08T19:44:04.774Z,3.47
2022-10-08T19:48:06.227Z,3.08
2022-10-08T19:52:08.281Z,3.53
2022-10-08T19:56:10.415Z,3.70
2022-10-08T20:00:13.429Z,3.67
2022-10-08T20:04:16.973Z,3.85
2022-10-08T20:08:18.643Z,4.50
2022-10-08T20:12:20.247Z,4.43
2022-10-08T20:16:32.891Z,4.45
2022-10-08T20:20:34.720Z,4.43
2022-10-08T20:24:36.274Z,3.13
2022-10-08T20:28:37.831Z,3.53
2022-10-08T20:32:39.588Z,3.88
2022-10-08T20:36:41.602Z,3.58
2022-10-08T20:40:42.959Z,3.22
2022-10-08T20:44:44.404Z,4.13
2022-10-08T20:48:46.742Z,3.20
2022-10-08T20:52:49.352Z,3.33
2022-10-08T20:56:51.290Z,3.53
2022-10-08T21:00:52.989Z,2.70
2022-10-08T21:04:54.504Z,3.47
2022-10-08T21:08:57.794Z,3.80
2022-10-08T21:12:59.293Z,3.30
2022-10-08T21:17:00.790Z,3.85
2022-10-08T21:21:04.447Z,3.38
2022-10-08T21:25:06.512Z,4.70
2022-10-08T21:29:10.870Z,3.50
2022-10-08T21:33:12.311Z,2.85
2022-10-08T21:37:14.292Z,3.10
2022-10-08T21:41:17.511Z,3.20
2022-10-08T21:45:19.236Z,2.80
2022-10-08T21:49:20.984Z,3.55
2022-10-08T21:53:22.526Z,3.80
2022-10-08T21:57:24.585Z,3.42
2022-10-08T22:01:46.515Z,6.50
2022-10-08T22:05:55.179Z,5.55
2022-10-08T22:09:56.770Z,4.93
2022-10-08T22:13:58.361Z,5.25
2022-10-08T22:17:59.941Z,5.32
2022-10-08T22:22:02.128Z,5.18
2022-10-08T22:26:15.130Z,4.95
2022-10-08T22:30:16.614Z,4.60
2022-10-08T22:34:18.221Z,4.22
2022-10-08T22:38:19.764Z,3.20
2022-10-08T22:42:21.648Z,3.42
2022-10-08T22:46:25.833Z,3.38
2022-10-08T22:50:27.307Z,2.95
2022-10-08T22:54:28.676Z,3.63
2022-10-08T22:58:30.250Z,3.42
2022-10-08T23:02:31.731Z,3.38
2022-10-08T23:06:34.444Z,3.47
2022-10-08T23:10:37.504Z,2.88
2022-10-08T23:14:39.279Z,3.90
2022-10-08T23:18:43.310Z,3.10
2022-10-08T23:22:44.961Z,3.20
2022-10-08T23:26:46.643Z,3.40
2022-10-08T23:30:48.285Z,3.80
2022-10-08T23:34:49.692Z,3.17
2022-10-08T23:38:52.085Z,5.32
2022-10-08T23:42:53.696Z,3.22
2022-10-08T23:46:55.616Z,4.50
2022-10-08T23:50:57.296Z,3.20
2022-10-08T23:54:59.007Z,3.50
2022-10-08T23:59:00.721Z,3.15
